sensor_id;sensor_type;location;lat;lon;timestamp;P1;durP1;ratioP1;P2;durP2;ratioP2
69906;SDS011;57190;47.918;8.112;2023-04-25T00:02:02;3.37;;;1.87;;
69906;SDS011;57190;47.918;8.112;2023-04-25T00:04:28;4.00;;;2.43;;
69906;SDS011;57190;47.918;8.112;2023-04-25T00:06:54;3.50;;;2.33;;
69906;SDS011;57190;47.918;8.112;2023-04-25T00:09:21;3.90;;;2.00;;
69906;SDS011;57190;47.918;8.112;2023-04-25T00:11:47;4.80;;;2.23;;
69906;SDS011;57190;47.918;8.112;2023-04-25T00:14:12;3.13;;;1.80;;
69906;SDS011;57190;47.918;8.112;2023-04-25T00:16:38;3.23;;;1.87;;
69906;SDS011;57190;47.918;8.112;2023-04-25T00:19:04;3.00;;;1.80;;
69906;SDS011;57190;47.918;8.112;2023-04-25T00:21:29;4.27;;;1.80;;
69906;SDS011;57190;47.918;8.112;2023-04-25T00:23:56;1.80;;;1.70;;
69906;SDS011;57190;47.918;8.112;2023-04-25T00:26:22;2.63;;;2.10;;
69906;SDS011;57190;47.918;8.112;2023-04-25T00:28:48;3.13;;;1.63;;
69906;SDS011;57190;47.918;8.112;2023-04-25T00:31:13;3.70;;;1.73;;
69906;SDS011;57190;47.918;8.112;2023-04-25T00:33:39;2.53;;;1.70;;
69906;SDS011;57190;47.918;8.112;2023-04-25T00:36:05;3.67;;;1.60;;
69906;SDS011;57190;47.918;8.112;2023-04-25T00:38:31;2.17;;;1.97;;
69906;SDS011;57190;47.918;8.112;2023-04-25T00:40:56;2.87;;;1.87;;
69906;SDS011;57190;47.918;8.112;2023-04-25T00:43:24;2.53;;;2.30;;
69906;SDS011;57190;47.918;8.112;2023-04-25T00:45:51;4.70;;;1.90;;
69906;SDS011;57190;47.918;8.112;2023-04-25T00:48:17;1.97;;;1.80;;
69906;SDS011;57190;47.918;8.112;2023-04-25T00:50:46;2.67;;;1.57;;
69906;SDS011;57190;47.918;8.112;2023-04-25T00:53:19;2.47;;;1.90;;
69906;SDS011;57190;47.918;8.112;2023-04-25T00:55:47;2.13;;;1.70;;
69906;SDS011;57190;47.918;8.112;2023-04-25T00:58:15;1.73;;;1.63;;
69906;SDS011;57190;47.918;8.112;2023-04-25T01:00:42;1.87;;;1.60;;
69906;SDS011;57190;47.918;8.112;2023-04-25T01:03:08;2.70;;;1.97;;
69906;SDS011;57190;47.918;8.112;2023-04-25T01:05:35;2.37;;;2.00;;
69906;SDS011;57190;47.918;8.112;2023-04-25T01:08:00;2.50;;;2.00;;
69906;SDS011;57190;47.918;8.112;2023-04-25T01:10:26;2.07;;;1.77;;
69906;SDS011;57190;47.918;8.112;2023-04-25T01:12:52;2.27;;;1.70;;
69906;SDS011;57190;47.918;8.112;2023-04-25T01:15:17;3.27;;;1.83;;
69906;SDS011;57190;47.918;8.112;2023-04-25T01:17:43;3.73;;;2.20;;
69906;SDS011;57190;47.918;8.112;2023-04-25T01:20:09;3.07;;;1.97;;
69906;SDS011;57190;47.918;8.112;2023-04-25T01:22:36;2.63;;;2.27;;
69906;SDS011;57190;47.918;8.112;2023-04-25T01:25:03;1.90;;;1.80;;
69906;SDS011;57190;47.918;8.112;2023-04-25T01:27:29;2.27;;;2.07;;
69906;SDS011;57190;47.918;8.112;2023-04-25T01:29:55;3.77;;;2.07;;
69906;SDS011;57190;47.918;8.112;2023-04-25T01:32:22;2.27;;;1.70;;
69906;SDS011;57190;47.918;8.112;2023-04-25T01:34:48;3.33;;;1.87;;
69906;SDS011;57190;47.918;8.112;2023-04-25T01:37:14;2.03;;;1.73;;
69906;SDS011;57190;47.918;8.112;2023-04-25T01:39:41;3.60;;;2.13;;
69906;SDS011;57190;47.918;8.112;2023-04-25T01:42:07;2.90;;;2.43;;
69906;SDS011;57190;47.918;8.112;2023-04-25T01:44:33;2.40;;;2.00;;
69906;SDS011;57190;47.918;8.112;2023-04-25T01:46:59;3.67;;;2.03;;
69906;SDS011;57190;47.918;8.112;2023-04-25T01:49:24;4.70;;;2.40;;
69906;SDS011;57190;47.918;8.112;2023-04-25T01:51:50;5.07;;;2.10;;
69906;SDS011;57190;47.918;8.112;2023-04-25T01:54:15;1.93;;;1.77;;
69906;SDS011;57190;47.918;8.112;2023-04-25T01:56:42;2.53;;;2.30;;
69906;SDS011;57190;47.918;8.112;2023-04-25T01:59:07;3.10;;;2.10;;
69906;SDS011;57190;47.918;8.112;2023-04-25T02:01:33;3.20;;;2.37;;
69906;SDS011;57190;47.918;8.112;2023-04-25T02:03:59;3.53;;;2.10;;
69906;SDS011;57190;47.918;8.112;2023-04-25T02:06:24;2.17;;;2.07;;
69906;SDS011;57190;47.918;8.112;2023-04-25T02:08:50;2.00;;;1.90;;
69906;SDS011;57190;47.918;8.112;2023-04-25T02:11:15;2.60;;;2.00;;
69906;SDS011;57190;47.918;8.112;2023-04-25T02:13:41;4.97;;;2.67;;
69906;SDS011;57190;47.918;8.112;2023-04-25T02:16:06;2.57;;;1.90;;
69906;SDS011;57190;47.918;8.112;2023-04-25T02:18:31;3.10;;;2.10;;
69906;SDS011;57190;47.918;8.112;2023-04-25T02:20:58;3.93;;;2.20;;
69906;SDS011;57190;47.918;8.112;2023-04-25T02:23:24;2.30;;;2.10;;
69906;SDS011;57190;47.918;8.112;2023-04-25T02:25:50;3.43;;;2.03;;
69906;SDS011;57190;47.918;8.112;2023-04-25T02:28:17;2.53;;;1.93;;
69906;SDS011;57190;47.918;8.112;2023-04-25T02:30:42;2.50;;;2.17;;
69906;SDS011;57190;47.918;8.112;2023-04-25T02:33:07;2.80;;;2.10;;
69906;SDS011;57190;47.918;8.112;2023-04-25T02:35:34;5.17;;;2.90;;
69906;SDS011;57190;47.918;8.112;2023-04-25T02:38:00;4.40;;;2.27;;
69906;SDS011;57190;47.918;8.112;2023-04-25T02:40:25;2.83;;;2.37;;
69906;SDS011;57190;47.918;8.112;2023-04-25T02:42:51;2.87;;;2.10;;
69906;SDS011;57190;47.918;8.112;2023-04-25T02:45:16;3.03;;;2.50;;
69906;SDS011;57190;47.918;8.112;2023-04-25T02:47:42;4.17;;;2.57;;
69906;SDS011;57190;47.918;8.112;2023-04-25T02:50:07;2.50;;;2.17;;
69906;SDS011;57190;47.918;8.112;2023-04-25T02:52:33;2.90;;;1.90;;
69906;SDS011;57190;47.918;8.112;2023-04-25T02:54:58;2.83;;;2.27;;
69906;SDS011;57190;47.918;8.112;2023-04-25T02:57:24;2.73;;;2.10;;
69906;SDS011;57190;47.918;8.112;2023-04-25T02:59:49;3.13;;;2.50;;
69906;SDS011;57190;47.918;8.112;2023-04-25T03:02:15;3.00;;;2.13;;
69906;SDS011;57190;47.918;8.112;2023-04-25T03:04:40;3.23;;;2.07;;
69906;SDS011;57190;47.918;8.112;2023-04-25T03:07:05;2.20;;;2.00;;
69906;SDS011;57190;47.918;8.112;2023-04-25T03:09:32;3.67;;;2.37;;
69906;SDS011;57190;47.918;8.112;2023-04-25T03:11:57;2.47;;;2.17;;
69906;SDS011;57190;47.918;8.112;2023-04-25T03:14:23;2.83;;;2.53;;
69906;SDS011;57190;47.918;8.112;2023-04-25T03:16:48;1.70;;;1.60;;
69906;SDS011;57190;47.918;8.112;2023-04-25T03:19:14;2.53;;;2.10;;
69906;SDS011;57190;47.918;8.112;2023-04-25T03:21:41;3.33;;;2.37;;
69906;SDS011;57190;47.918;8.112;2023-04-25T03:24:06;3.10;;;1.93;;
69906;SDS011;57190;47.918;8.112;2023-04-25T03:26:32;1.83;;;1.73;;
69906;SDS011;57190;47.918;8.112;2023-04-25T03:28:57;2.53;;;1.90;;
69906;SDS011;57190;47.918;8.112;2023-04-25T03:31:23;1.80;;;1.70;;
69906;SDS011;57190;47.918;8.112;2023-04-25T03:33:48;2.13;;;1.80;;
69906;SDS011;57190;47.918;8.112;2023-04-25T03:36:14;4.57;;;2.17;;
69906;SDS011;57190;47.918;8.112;2023-04-25T03:38:39;2.20;;;2.00;;
69906;SDS011;57190;47.918;8.112;2023-04-25T03:41:06;3.03;;;2.30;;
69906;SDS011;57190;47.918;8.112;2023-04-25T03:43:32;2.60;;;2.00;;
69906;SDS011;57190;47.918;8.112;2023-04-25T03:45:58;2.23;;;1.90;;
69906;SDS011;57190;47.918;8.112;2023-04-25T03:48:23;1.83;;;1.73;;
69906;SDS011;57190;47.918;8.112;2023-04-25T03:50:52;2.53;;;1.87;;
69906;SDS011;57190;47.918;8.112;2023-04-25T03:53:18;3.27;;;1.83;;
69906;SDS011;57190;47.918;8.112;2023-04-25T03:55:43;2.20;;;1.63;;
69906;SDS011;57190;47.918;8.112;2023-04-25T03:58:09;2.53;;;1.63;;
69906;SDS011;57190;47.918;8.112;2023-04-25T04:00:35;1.80;;;1.70;;
69906;SDS011;57190;47.918;8.112;2023-04-25T04:03:01;2.83;;;1.90;;
69906;SDS011;57190;47.918;8.112;2023-04-25T04:05:27;4.30;;;1.60;;
69906;SDS011;57190;47.918;8.112;2023-04-25T04:07:52;3.03;;;1.60;;
69906;SDS011;57190;47.918;8.112;2023-04-25T04:10:18;3.80;;;1.83;;
69906;SDS011;57190;47.918;8.112;2023-04-25T04:12:44;1.67;;;1.57;;
69906;SDS011;57190;47.918;8.112;2023-04-25T04:15:10;2.70;;;1.70;;
69906;SDS011;57190;47.918;8.112;2023-04-25T04:17:35;3.30;;;1.67;;
69906;SDS011;57190;47.918;8.112;2023-04-25T04:20:01;1.97;;;1.73;;
69906;SDS011;57190;47.918;8.112;2023-04-25T04:22:28;3.20;;;1.53;;
69906;SDS011;57190;47.918;8.112;2023-04-25T04:24:54;2.00;;;1.80;;
69906;SDS011;57190;47.918;8.112;2023-04-25T04:27:19;2.37;;;1.53;;
69906;SDS011;57190;47.918;8.112;2023-04-25T04:29:46;2.20;;;1.80;;
69906;SDS011;57190;47.918;8.112;2023-04-25T04:32:12;4.13;;;2.07;;
69906;SDS011;57190;47.918;8.112;2023-04-25T04:34:38;2.17;;;1.63;;
69906;SDS011;57190;47.918;8.112;2023-04-25T04:37:04;2.27;;;1.70;;
69906;SDS011;57190;47.918;8.112;2023-04-25T04:39:32;1.90;;;1.67;;
69906;SDS011;57190;47.918;8.112;2023-04-25T04:42:01;1.60;;;1.50;;
69906;SDS011;57190;47.918;8.112;2023-04-25T04:44:29;1.90;;;1.50;;
69906;SDS011;57190;47.918;8.112;2023-04-25T04:47:02;1.67;;;1.40;;
69906;SDS011;57190;47.918;8.112;2023-04-25T04:49:32;2.07;;;1.67;;
69906;SDS011;57190;47.918;8.112;2023-04-25T04:51:57;2.67;;;1.60;;
69906;SDS011;57190;47.918;8.112;2023-04-25T04:54:25;1.63;;;1.50;;
69906;SDS011;57190;47.918;8.112;2023-04-25T04:56:50;1.97;;;1.43;;
69906;SDS011;57190;47.918;8.112;2023-04-25T04:59:18;2.40;;;1.87;;
69906;SDS011;57190;47.918;8.112;2023-04-25T05:01:44;1.53;;;1.43;;
69906;SDS011;57190;47.918;8.112;2023-04-25T05:14:23;1.90;;;1.80;;
69906;SDS011;57190;47.918;8.112;2023-04-25T05:16:48;3.27;;;2.97;;
69906;SDS011;57190;47.918;8.112;2023-04-25T05:25:44;2.53;;;2.30;;
69906;SDS011;57190;47.918;8.112;2023-04-25T05:28:10;3.00;;;2.07;;
69906;SDS011;57190;47.918;8.112;2023-04-25T05:30:37;2.63;;;1.83;;
69906;SDS011;57190;47.918;8.112;2023-04-25T05:33:03;2.00;;;1.80;;
69906;SDS011;57190;47.918;8.112;2023-04-25T05:35:28;1.83;;;1.67;;
69906;SDS011;57190;47.918;8.112;2023-04-25T05:37:54;2.33;;;1.90;;
69906;SDS011;57190;47.918;8.112;2023-04-25T05:40:19;2.53;;;1.70;;
69906;SDS011;57190;47.918;8.112;2023-04-25T05:42:45;3.13;;;2.03;;
69906;SDS011;57190;47.918;8.112;2023-04-25T05:45:11;4.87;;;2.23;;
69906;SDS011;57190;47.918;8.112;2023-04-25T05:47:36;2.87;;;1.50;;
69906;SDS011;57190;47.918;8.112;2023-04-25T05:50:02;2.13;;;1.67;;
69906;SDS011;57190;47.918;8.112;2023-04-25T05:55:42;1.97;;;1.67;;
69906;SDS011;57190;47.918;8.112;2023-04-25T05:58:08;2.77;;;2.07;;
69906;SDS011;57190;47.918;8.112;2023-04-25T06:00:33;3.47;;;2.00;;
69906;SDS011;57190;47.918;8.112;2023-04-25T06:02:59;2.90;;;1.87;;
69906;SDS011;57190;47.918;8.112;2023-04-25T06:05:25;1.70;;;1.60;;
69906;SDS011;57190;47.918;8.112;2023-04-25T06:07:50;2.37;;;1.60;;
69906;SDS011;57190;47.918;8.112;2023-04-25T06:10:16;1.60;;;1.50;;
69906;SDS011;57190;47.918;8.112;2023-04-25T06:12:41;2.30;;;1.70;;
69906;SDS011;57190;47.918;8.112;2023-04-25T06:15:07;1.77;;;1.53;;
69906;SDS011;57190;47.918;8.112;2023-04-25T06:17:33;2.73;;;1.67;;
69906;SDS011;57190;47.918;8.112;2023-04-25T06:19:58;2.10;;;1.70;;
69906;SDS011;57190;47.918;8.112;2023-04-25T06:22:24;2.93;;;1.90;;
69906;SDS011;57190;47.918;8.112;2023-04-25T06:24:49;2.70;;;1.60;;
69906;SDS011;57190;47.918;8.112;2023-04-25T06:27:15;1.67;;;1.57;;
69906;SDS011;57190;47.918;8.112;2023-04-25T06:29:40;1.87;;;1.73;;
69906;SDS011;57190;47.918;8.112;2023-04-25T06:32:06;2.40;;;1.73;;
69906;SDS011;57190;47.918;8.112;2023-04-25T06:34:31;2.77;;;2.27;;
69906;SDS011;57190;47.918;8.112;2023-04-25T06:36:56;3.30;;;3.00;;
69906;SDS011;57190;47.918;8.112;2023-04-25T06:39:22;3.57;;;3.27;;
69906;SDS011;57190;47.918;8.112;2023-04-25T06:41:49;4.43;;;4.13;;
69906;SDS011;57190;47.918;8.112;2023-04-25T06:44:15;2.20;;;2.10;;
69906;SDS011;57190;47.918;8.112;2023-04-25T06:46:40;2.20;;;2.00;;
69906;SDS011;57190;47.918;8.112;2023-04-25T06:49:06;2.23;;;2.13;;
69906;SDS011;57190;47.918;8.112;2023-04-25T06:51:31;1.90;;;1.50;;
69906;SDS011;57190;47.918;8.112;2023-04-25T06:53:57;1.57;;;1.47;;
69906;SDS011;57190;47.918;8.112;2023-04-25T06:56:23;1.50;;;1.40;;
69906;SDS011;57190;47.918;8.112;2023-04-25T06:58:48;2.90;;;2.00;;
69906;SDS011;57190;47.918;8.112;2023-04-25T07:01:14;1.53;;;1.43;;
69906;SDS011;57190;47.918;8.112;2023-04-25T07:03:40;1.60;;;1.50;;
69906;SDS011;57190;47.918;8.112;2023-04-25T07:06:05;1.60;;;1.50;;
69906;SDS011;57190;47.918;8.112;2023-04-25T07:08:31;1.20;;;1.10;;
69906;SDS011;57190;47.918;8.112;2023-04-25T07:10:56;1.27;;;1.17;;
69906;SDS011;57190;47.918;8.112;2023-04-25T07:13:22;1.20;;;1.10;;
69906;SDS011;57190;47.918;8.112;2023-04-25T07:15:47;1.60;;;1.50;;
69906;SDS011;57190;47.918;8.112;2023-04-25T07:18:13;1.83;;;1.53;;
69906;SDS011;57190;47.918;8.112;2023-04-25T07:20:39;1.37;;;1.10;;
69906;SDS011;57190;47.918;8.112;2023-04-25T07:23:04;1.40;;;1.30;;
69906;SDS011;57190;47.918;8.112;2023-04-25T07:25:30;1.37;;;1.27;;
69906;SDS011;57190;47.918;8.112;2023-04-25T07:27:55;1.30;;;1.20;;
69906;SDS011;57190;47.918;8.112;2023-04-25T07:30:21;1.20;;;1.10;;
69906;SDS011;57190;47.918;8.112;2023-04-25T07:32:48;1.23;;;1.20;;
69906;SDS011;57190;47.918;8.112;2023-04-25T07:35:14;2.43;;;1.80;;
69906;SDS011;57190;47.918;8.112;2023-04-25T07:37:40;1.70;;;1.17;;
69906;SDS011;57190;47.918;8.112;2023-04-25T07:40:05;1.00;;;0.93;;
69906;SDS011;57190;47.918;8.112;2023-04-25T07:42:32;0.60;;;0.60;;
69906;SDS011;57190;47.918;8.112;2023-04-25T07:44:58;0.70;;;0.70;;
69906;SDS011;57190;47.918;8.112;2023-04-25T07:47:23;2.00;;;1.20;;
69906;SDS011;57190;47.918;8.112;2023-04-25T07:49:49;1.00;;;0.93;;
69906;SDS011;57190;47.918;8.112;2023-04-25T07:52:15;0.93;;;0.73;;
69906;SDS011;57190;47.918;8.112;2023-04-25T07:54:40;0.60;;;0.60;;
69906;SDS011;57190;47.918;8.112;2023-04-25T07:57:06;0.40;;;0.40;;
69906;SDS011;57190;47.918;8.112;2023-04-25T07:59:32;0.33;;;0.33;;
69906;SDS011;57190;47.918;8.112;2023-04-25T08:01:57;0.50;;;0.50;;
69906;SDS011;57190;47.918;8.112;2023-04-25T08:04:23;0.53;;;0.53;;
69906;SDS011;57190;47.918;8.112;2023-04-25T08:06:50;0.40;;;0.40;;
69906;SDS011;57190;47.918;8.112;2023-04-25T08:09:16;1.47;;;0.90;;
69906;SDS011;57190;47.918;8.112;2023-04-25T08:11:42;0.73;;;0.70;;
69906;SDS011;57190;47.918;8.112;2023-04-25T08:14:07;0.93;;;0.83;;
69906;SDS011;57190;47.918;8.112;2023-04-25T08:16:33;0.60;;;0.60;;
69906;SDS011;57190;47.918;8.112;2023-04-25T08:18:59;0.50;;;0.50;;
69906;SDS011;57190;47.918;8.112;2023-04-25T08:21:25;0.50;;;0.50;;
69906;SDS011;57190;47.918;8.112;2023-04-25T08:23:52;0.40;;;0.40;;
69906;SDS011;57190;47.918;8.112;2023-04-25T08:26:17;0.40;;;0.40;;
69906;SDS011;57190;47.918;8.112;2023-04-25T08:28:43;0.40;;;0.40;;
69906;SDS011;57190;47.918;8.112;2023-04-25T08:31:08;0.40;;;0.40;;
69906;SDS011;57190;47.918;8.112;2023-04-25T08:33:34;0.40;;;0.40;;
69906;SDS011;57190;47.918;8.112;2023-04-25T08:35:59;0.40;;;0.40;;
69906;SDS011;57190;47.918;8.112;2023-04-25T08:38:25;0.40;;;0.40;;
69906;SDS011;57190;47.918;8.112;2023-04-25T08:40:50;0.40;;;0.40;;
69906;SDS011;57190;47.918;8.112;2023-04-25T08:43:17;0.50;;;0.50;;
69906;SDS011;57190;47.918;8.112;2023-04-25T08:45:44;0.50;;;0.50;;
69906;SDS011;57190;47.918;8.112;2023-04-25T08:48:15;0.40;;;0.40;;
69906;SDS011;57190;47.918;8.112;2023-04-25T08:50:51;0.93;;;0.70;;
69906;SDS011;57190;47.918;8.112;2023-04-25T08:53:55;0.50;;;0.50;;
69906;SDS011;57190;47.918;8.112;2023-04-25T08:56:24;0.50;;;0.50;;
69906;SDS011;57190;47.918;8.112;2023-04-25T08:58:50;0.50;;;0.50;;
69906;SDS011;57190;47.918;8.112;2023-04-25T09:01:16;0.40;;;0.40;;
69906;SDS011;57190;47.918;8.112;2023-04-25T09:03:43;0.40;;;0.40;;
69906;SDS011;57190;47.918;8.112;2023-04-25T09:06:10;0.57;;;0.57;;
69906;SDS011;57190;47.918;8.112;2023-04-25T09:08:39;0.53;;;0.53;;
69906;SDS011;57190;47.918;8.112;2023-04-25T09:11:06;45.57;;;2.67;;
69906;SDS011;57190;47.918;8.112;2023-04-25T09:13:32;3.90;;;0.77;;
69906;SDS011;57190;47.918;8.112;2023-04-25T09:15:57;8.47;;;1.40;;
69906;SDS011;57190;47.918;8.112;2023-04-25T09:20:54;0.70;;;0.70;;
69906;SDS011;57190;47.918;8.112;2023-04-25T09:23:20;0.70;;;0.70;;
69906;SDS011;57190;47.918;8.112;2023-04-25T09:25:47;0.67;;;0.67;;
69906;SDS011;57190;47.918;8.112;2023-04-25T09:28:13;0.63;;;0.63;;
69906;SDS011;57190;47.918;8.112;2023-04-25T09:30:39;0.70;;;0.70;;
69906;SDS011;57190;47.918;8.112;2023-04-25T09:33:11;0.90;;;0.70;;
69906;SDS011;57190;47.918;8.112;2023-04-25T09:35:38;0.80;;;0.80;;
69906;SDS011;57190;47.918;8.112;2023-04-25T09:38:08;0.83;;;0.83;;
69906;SDS011;57190;47.918;8.112;2023-04-25T09:40:42;0.90;;;0.90;;
69906;SDS011;57190;47.918;8.112;2023-04-25T09:43:10;0.80;;;0.80;;
69906;SDS011;57190;47.918;8.112;2023-04-25T09:45:43;0.70;;;0.70;;
69906;SDS011;57190;47.918;8.112;2023-04-25T09:48:11;1.40;;;0.90;;
69906;SDS011;57190;47.918;8.112;2023-04-25T09:50:38;1.00;;;1.00;;
69906;SDS011;57190;47.918;8.112;2023-04-25T09:53:04;0.80;;;0.80;;
69906;SDS011;57190;47.918;8.112;2023-04-25T09:55:34;0.70;;;0.70;;
69906;SDS011;57190;47.918;8.112;2023-04-25T09:58:03;0.60;;;0.60;;
69906;SDS011;57190;47.918;8.112;2023-04-25T10:00:32;0.80;;;0.80;;
69906;SDS011;57190;47.918;8.112;2023-04-25T10:02:59;0.50;;;0.50;;
69906;SDS011;57190;47.918;8.112;2023-04-25T10:05:29;0.57;;;0.57;;
69906;SDS011;57190;47.918;8.112;2023-04-25T10:07:58;1.50;;;0.70;;
69906;SDS011;57190;47.918;8.112;2023-04-25T10:10:27;0.60;;;0.60;;
69906;SDS011;57190;47.918;8.112;2023-04-25T10:12:53;0.80;;;0.80;;
69906;SDS011;57190;47.918;8.112;2023-04-25T10:15:20;0.80;;;0.80;;
69906;SDS011;57190;47.918;8.112;2023-04-25T10:17:47;0.90;;;0.90;;
69906;SDS011;57190;47.918;8.112;2023-04-25T10:20:13;1.20;;;1.10;;
69906;SDS011;57190;47.918;8.112;2023-04-25T10:22:41;3.07;;;1.40;;
69906;SDS011;57190;47.918;8.112;2023-04-25T10:25:09;2.10;;;1.10;;
69906;SDS011;57190;47.918;8.112;2023-04-25T10:27:36;1.30;;;1.20;;
69906;SDS011;57190;47.918;8.112;2023-04-25T10:30:13;1.37;;;1.27;;
69906;SDS011;57190;47.918;8.112;2023-04-25T10:32:43;1.17;;;1.17;;
69906;SDS011;57190;47.918;8.112;2023-04-25T10:35:11;1.47;;;1.30;;
69906;SDS011;57190;47.918;8.112;2023-04-25T10:37:37;1.10;;;1.10;;
69906;SDS011;57190;47.918;8.112;2023-04-25T10:40:09;1.40;;;1.40;;
69906;SDS011;57190;47.918;8.112;2023-04-25T10:42:35;1.60;;;1.50;;
69906;SDS011;57190;47.918;8.112;2023-04-25T10:45:02;1.80;;;1.70;;
69906;SDS011;57190;47.918;8.112;2023-04-25T10:47:36;1.53;;;1.43;;
69906;SDS011;57190;47.918;8.112;2023-04-25T10:50:08;1.20;;;1.20;;
69906;SDS011;57190;47.918;8.112;2023-04-25T10:52:34;1.30;;;1.20;;
69906;SDS011;57190;47.918;8.112;2023-04-25T10:55:00;1.30;;;1.20;;
69906;SDS011;57190;47.918;8.112;2023-04-25T11:02:41;1.50;;;1.40;;
69906;SDS011;57190;47.918;8.112;2023-04-25T11:05:16;1.80;;;1.70;;
69906;SDS011;57190;47.918;8.112;2023-04-25T11:07:50;1.90;;;1.80;;
69906;SDS011;57190;47.918;8.112;2023-04-25T11:10:18;1.70;;;1.60;;
69906;SDS011;57190;47.918;8.112;2023-04-25T11:12:45;2.00;;;1.90;;
69906;SDS011;57190;47.918;8.112;2023-04-25T11:15:11;1.70;;;1.60;;
69906;SDS011;57190;47.918;8.112;2023-04-25T11:17:45;1.70;;;1.60;;
69906;SDS011;57190;47.918;8.112;2023-04-25T11:20:12;3.17;;;1.80;;
69906;SDS011;57190;47.918;8.112;2023-04-25T11:22:38;1.57;;;1.47;;
69906;SDS011;57190;47.918;8.112;2023-04-25T11:25:08;1.77;;;1.67;;
69906;SDS011;57190;47.918;8.112;2023-04-25T11:27:37;1.63;;;1.53;;
69906;SDS011;57190;47.918;8.112;2023-04-25T11:30:23;1.30;;;1.20;;
69906;SDS011;57190;47.918;8.112;2023-04-25T11:32:50;2.23;;;2.07;;
69906;SDS011;57190;47.918;8.112;2023-04-25T11:35:17;1.40;;;1.30;;
69906;SDS011;57190;47.918;8.112;2023-04-25T11:37:43;1.80;;;1.70;;
69906;SDS011;57190;47.918;8.112;2023-04-25T11:40:10;1.43;;;1.33;;
69906;SDS011;57190;47.918;8.112;2023-04-25T11:42:42;2.03;;;1.80;;
69906;SDS011;57190;47.918;8.112;2023-04-25T11:45:09;2.67;;;1.83;;
69906;SDS011;57190;47.918;8.112;2023-04-25T11:47:36;2.17;;;2.03;;
69906;SDS011;57190;47.918;8.112;2023-04-25T11:50:02;2.87;;;2.67;;
69906;SDS011;57190;47.918;8.112;2023-04-25T11:55:06;1.90;;;1.80;;
69906;SDS011;57190;47.918;8.112;2023-04-25T11:57:38;2.10;;;1.90;;
69906;SDS011;57190;47.918;8.112;2023-04-25T12:00:08;2.27;;;2.17;;
69906;SDS011;57190;47.918;8.112;2023-04-25T12:02:36;1.90;;;1.80;;
69906;SDS011;57190;47.918;8.112;2023-04-25T12:05:02;2.20;;;2.10;;
69906;SDS011;57190;47.918;8.112;2023-04-25T12:07:33;2.10;;;2.00;;
69906;SDS011;57190;47.918;8.112;2023-04-25T12:09:58;2.40;;;2.20;;
69906;SDS011;57190;47.918;8.112;2023-04-25T12:12:27;2.07;;;1.97;;
69906;SDS011;57190;47.918;8.112;2023-04-25T12:14:53;2.03;;;1.93;;
69906;SDS011;57190;47.918;8.112;2023-04-25T12:17:20;1.90;;;1.80;;
69906;SDS011;57190;47.918;8.112;2023-04-25T12:19:46;2.10;;;2.00;;
69906;SDS011;57190;47.918;8.112;2023-04-25T12:22:22;1.80;;;1.70;;
69906;SDS011;57190;47.918;8.112;2023-04-25T12:24:48;1.70;;;1.60;;
69906;SDS011;57190;47.918;8.112;2023-04-25T12:27:15;2.73;;;1.90;;
69906;SDS011;57190;47.918;8.112;2023-04-25T12:29:53;2.23;;;2.03;;
69906;SDS011;57190;47.918;8.112;2023-04-25T12:32:19;1.80;;;1.70;;
69906;SDS011;57190;47.918;8.112;2023-04-25T12:34:45;1.60;;;1.50;;
69906;SDS011;57190;47.918;8.112;2023-04-25T12:37:11;1.13;;;1.13;;
69906;SDS011;57190;47.918;8.112;2023-04-25T12:39:36;1.20;;;1.10;;
69906;SDS011;57190;47.918;8.112;2023-04-25T12:42:02;1.10;;;1.10;;
69906;SDS011;57190;47.918;8.112;2023-04-25T12:44:28;1.53;;;1.43;;
69906;SDS011;57190;47.918;8.112;2023-04-25T12:46:54;1.47;;;1.30;;
69906;SDS011;57190;47.918;8.112;2023-04-25T12:49:20;1.57;;;1.10;;
69906;SDS011;57190;47.918;8.112;2023-04-25T12:51:46;1.00;;;1.00;;
69906;SDS011;57190;47.918;8.112;2023-04-25T12:54:11;1.00;;;1.00;;
69906;SDS011;57190;47.918;8.112;2023-04-25T12:56:37;1.17;;;1.07;;
69906;SDS011;57190;47.918;8.112;2023-04-25T12:59:03;1.10;;;1.10;;
69906;SDS011;57190;47.918;8.112;2023-04-25T13:01:29;1.20;;;1.20;;
69906;SDS011;57190;47.918;8.112;2023-04-25T13:03:55;1.50;;;0.90;;
69906;SDS011;57190;47.918;8.112;2023-04-25T13:06:21;1.00;;;1.00;;
69906;SDS011;57190;47.918;8.112;2023-04-25T13:08:47;1.10;;;1.00;;
69906;SDS011;57190;47.918;8.112;2023-04-25T13:11:13;1.33;;;1.20;;
69906;SDS011;57190;47.918;8.112;2023-04-25T13:13:42;1.03;;;1.00;;
69906;SDS011;57190;47.918;8.112;2023-04-25T13:16:08;1.00;;;1.00;;
69906;SDS011;57190;47.918;8.112;2023-04-25T13:18:34;1.20;;;1.20;;
69906;SDS011;57190;47.918;8.112;2023-04-25T13:21:00;1.13;;;1.07;;
69906;SDS011;57190;47.918;8.112;2023-04-25T13:23:27;1.00;;;1.00;;
69906;SDS011;57190;47.918;8.112;2023-04-25T13:25:54;1.00;;;1.00;;
69906;SDS011;57190;47.918;8.112;2023-04-25T13:28:23;1.33;;;1.20;;
69906;SDS011;57190;47.918;8.112;2023-04-25T13:30:49;1.57;;;1.30;;
69906;SDS011;57190;47.918;8.112;2023-04-25T13:33:15;1.00;;;1.00;;
69906;SDS011;57190;47.918;8.112;2023-04-25T13:35:41;1.50;;;1.40;;
69906;SDS011;57190;47.918;8.112;2023-04-25T13:38:07;1.40;;;1.30;;
69906;SDS011;57190;47.918;8.112;2023-04-25T13:40:34;1.20;;;1.00;;
69906;SDS011;57190;47.918;8.112;2023-04-25T13:42:59;1.88;;;1.35;;
69906;SDS011;57190;47.918;8.112;2023-04-25T13:45:26;2.15;;;1.10;;
69906;SDS011;57190;47.918;8.112;2023-04-25T13:47:52;1.08;;;0.95;;
69906;SDS011;57190;47.918;8.112;2023-04-25T13:50:17;1.65;;;1.20;;
69906;SDS011;57190;47.918;8.112;2023-04-25T13:52:43;3.13;;;1.25;;
69906;SDS011;57190;47.918;8.112;2023-04-25T13:55:08;1.40;;;1.30;;
69906;SDS011;57190;47.918;8.112;2023-04-25T13:57:35;1.35;;;1.25;;
69906;SDS011;57190;47.918;8.112;2023-04-25T14:00:01;1.30;;;1.20;;
69906;SDS011;57190;47.918;8.112;2023-04-25T14:02:37;1.20;;;1.20;;
69906;SDS011;57190;47.918;8.112;2023-04-25T14:05:03;1.50;;;1.08;;
69906;SDS011;57190;47.918;8.112;2023-04-25T14:07:29;0.88;;;0.88;;
69906;SDS011;57190;47.918;8.112;2023-04-25T14:09:55;1.40;;;1.02;;
69906;SDS011;57190;47.918;8.112;2023-04-25T14:12:22;1.33;;;1.20;;
69906;SDS011;57190;47.918;8.112;2023-04-25T14:14:48;1.00;;;1.00;;
69906;SDS011;57190;47.918;8.112;2023-04-25T14:17:13;0.88;;;0.88;;
69906;SDS011;57190;47.918;8.112;2023-04-25T14:19:39;1.23;;;1.13;;
69906;SDS011;57190;47.918;8.112;2023-04-25T14:22:08;1.20;;;1.20;;
69906;SDS011;57190;47.918;8.112;2023-04-25T14:24:34;1.17;;;1.08;;
69906;SDS011;57190;47.918;8.112;2023-04-25T14:26:59;1.45;;;1.08;;
69906;SDS011;57190;47.918;8.112;2023-04-25T14:29:26;1.40;;;1.30;;
69906;SDS011;57190;47.918;8.112;2023-04-25T14:31:51;1.10;;;1.10;;
69906;SDS011;57190;47.918;8.112;2023-04-25T14:34:17;1.33;;;1.23;;
69906;SDS011;57190;47.918;8.112;2023-04-25T14:36:43;1.40;;;1.30;;
69906;SDS011;57190;47.918;8.112;2023-04-25T14:39:08;1.40;;;1.40;;
69906;SDS011;57190;47.918;8.112;2023-04-25T14:41:35;1.30;;;1.20;;
69906;SDS011;57190;47.918;8.112;2023-04-25T14:44:00;2.37;;;1.30;;
69906;SDS011;57190;47.918;8.112;2023-04-25T14:46:26;1.60;;;1.50;;
69906;SDS011;57190;47.918;8.112;2023-04-25T14:48:52;1.60;;;1.50;;
69906;SDS011;57190;47.918;8.112;2023-04-25T14:51:18;1.40;;;1.30;;
69906;SDS011;57190;47.918;8.112;2023-04-25T14:53:43;1.53;;;1.43;;
69906;SDS011;57190;47.918;8.112;2023-04-25T14:56:09;1.60;;;1.50;;
69906;SDS011;57190;47.918;8.112;2023-04-25T14:58:34;1.27;;;1.17;;
69906;SDS011;57190;47.918;8.112;2023-04-25T15:01:00;1.45;;;1.35;;
69906;SDS011;57190;47.918;8.112;2023-04-25T15:03:25;2.40;;;1.40;;
69906;SDS011;57190;47.918;8.112;2023-04-25T15:05:52;1.60;;;1.50;;
69906;SDS011;57190;47.918;8.112;2023-04-25T15:08:18;1.63;;;1.53;;
69906;SDS011;57190;47.918;8.112;2023-04-25T15:10:43;1.33;;;1.23;;
69906;SDS011;57190;47.918;8.112;2023-04-25T15:13:10;1.73;;;1.63;;
69906;SDS011;57190;47.918;8.112;2023-04-25T15:15:35;3.00;;;1.60;;